createdAt,value
2018-09-29T00:00:51.143Z,12.87
2018-09-29T00:15:51.159Z,12.66
2018-09-29T00:30:53.010Z,12.45
2018-09-29T00:45:50.909Z,12.21
2018-09-29T01:00:50.258Z,12.00
2018-09-29T01:15:51.326Z,12.00
2018-09-29T01:30:51.197Z,12.10
2018-09-29T01:45:57.666Z,12.26
2018-09-29T02:00:50.581Z,12.40
2018-09-29T02:15:49.734Z,12.32
2018-09-29T02:30:49.857Z,12.41
2018-09-29T02:45:50.502Z,12.50
2018-09-29T03:00:50.822Z,12.55
2018-09-29T03:15:50.742Z,12.60
2018-09-29T03:30:52.655Z,12.57
2018-09-29T03:45:51.210Z,12.43
2018-09-29T04:00:51.002Z,12.28
2018-09-29T04:15:51.034Z,12.18
2018-09-29T04:30:50.895Z,12.13
2018-09-29T04:45:50.853Z,12.29
2018-09-29T05:00:52.235Z,12.52
2018-09-29T05:15:50.199Z,13.49
2018-09-29T05:30:51.351Z,14.67
2018-09-29T05:45:51.766Z,18.98
2018-09-29T06:15:50.505Z,23.10
2018-09-29T06:30:50.765Z,25.07
2018-09-29T06:45:50.467Z,23.89
2018-09-29T07:00:50.938Z,22.83
2018-09-29T07:15:52.621Z,21.34
2018-09-29T07:45:53.938Z,23.48
2018-09-29T08:00:51.269Z,24.44
2018-09-29T08:15:51.783Z,24.80
2018-09-29T08:30:51.035Z,24.31
2018-09-29T08:45:51.026Z,24.18
2018-09-29T09:00:50.426Z,25.09
2018-09-29T09:15:50.321Z,24.93
2018-09-29T09:30:50.525Z,24.96
2018-09-29T09:45:50.824Z,25.12
2018-09-29T10:00:55.791Z,26.00
2018-09-29T10:15:51.478Z,26.81
2018-09-29T10:30:54.109Z,27.63
2018-09-29T10:45:50.946Z,27.94
2018-09-29T11:00:50.807Z,27.65
2018-09-29T11:15:50.955Z,27.54
2018-09-29T11:30:50.221Z,26.78
2018-09-29T11:45:50.870Z,25.16
2018-09-29T12:00:51.458Z,24.26
2018-09-29T12:15:51.085Z,24.26
2018-09-29T12:30:51.046Z,24.10
2018-09-29T12:45:51.405Z,24.27
2018-09-29T13:00:51.294Z,23.74
2018-09-29T13:15:51.498Z,23.56
2018-09-29T13:30:51.355Z,23.75
2018-09-29T13:45:50.657Z,23.46
2018-09-29T14:15:50.379Z,22.45
2018-09-29T14:30:51.356Z,22.36
2018-09-29T14:45:51.085Z,21.59
2018-09-29T15:00:50.194Z,21.10
2018-09-29T15:15:50.643Z,20.72
2018-09-29T15:30:52.813Z,20.23
2018-09-29T17:15:52.144Z,17.80
2018-09-29T17:30:53.275Z,17.54
2018-09-29T17:45:50.907Z,17.23
2018-09-29T18:00:50.504Z,16.83
2018-09-29T18:15:50.977Z,16.68
2018-09-29T18:30:50.723Z,16.34
2018-09-29T18:45:50.830Z,16.12
2018-09-29T19:00:51.055Z,15.89
2018-09-29T19:15:51.356Z,15.70
2018-09-29T19:30:50.705Z,15.59
2018-09-29T19:45:51.330Z,15.49
2018-09-29T20:00:54.067Z,15.37
2018-09-29T20:15:52.139Z,15.25
2018-09-29T20:30:52.542Z,15.17
2018-09-29T20:45:50.369Z,15.06
2018-09-29T21:00:50.315Z,14.94
2018-09-29T21:15:50.323Z,14.80
2018-09-29T21:30:51.246Z,14.70
2018-09-29T21:45:50.662Z,14.61
2018-09-29T22:00:52.567Z,14.56
2018-09-29T22:15:50.178Z,14.58
2018-09-29T22:30:50.473Z,14.67
2018-09-29T22:45:50.354Z,14.75
2018-09-29T23:00:50.874Z,14.87
2018-09-29T23:15:50.286Z,14.93
2018-09-29T23:30:52.738Z,14.97
2018-09-29T23:45:51.227Z,14.93
